Great Falls, Virginia
Current Conditions -  °F | °C
As of 9:16 AM on Monday 26 Jan 2015 (Local Time) from KIAD Reporting Station
Light Snow Light Snow  
Wind Chill: 25°   Ceiling: 900
Heat Index: 34°   Visibility: 2mi
Dew Point: 30°   Wind: 13mph
Humidity: 87%   Direction: 70°ENE
Pressure: 29.78"   Gusts: NA
Location:  39°N, 77.29°W
Report Text: KIAD 261416Z 07011KT 2SM -SN BR OVC009 01/M01 A2978 RMK AO2 P0000
Loading
Personal Weather Stations






























Interactive Weather Map New forecast layout! Learn more

10-Day Weather Forecast

Advertisements
Track Severe Weather on mobile